sensor_id;sensor_type;location;lat;lon;timestamp;P1;durP1;ratioP1;P2;durP2;ratioP2
920;SDS011;447;51.332;6.778;2023-07-31T00:00:00;5.17;;;3.77;;
920;SDS011;447;51.332;6.778;2023-07-31T00:02:29;5.07;;;4.53;;
920;SDS011;447;51.332;6.778;2023-07-31T00:04:55;4.10;;;3.70;;
920;SDS011;447;51.332;6.778;2023-07-31T00:07:23;6.63;;;4.20;;
920;SDS011;447;51.332;6.778;2023-07-31T00:09:49;5.90;;;3.80;;
920;SDS011;447;51.332;6.778;2023-07-31T00:12:15;6.50;;;3.17;;
920;SDS011;447;51.332;6.778;2023-07-31T00:14:42;6.73;;;3.57;;
920;SDS011;447;51.332;6.778;2023-07-31T00:17:10;6.50;;;3.50;;
920;SDS011;447;51.332;6.778;2023-07-31T00:19:36;4.97;;;4.30;;
920;SDS011;447;51.332;6.778;2023-07-31T00:22:04;6.83;;;3.80;;
920;SDS011;447;51.332;6.778;2023-07-31T00:24:30;6.00;;;4.50;;
920;SDS011;447;51.332;6.778;2023-07-31T00:26:59;5.57;;;3.90;;
920;SDS011;447;51.332;6.778;2023-07-31T00:29:26;5.30;;;3.90;;
920;SDS011;447;51.332;6.778;2023-07-31T00:31:52;5.80;;;4.13;;
920;SDS011;447;51.332;6.778;2023-07-31T00:34:18;5.20;;;4.10;;
920;SDS011;447;51.332;6.778;2023-07-31T00:36:46;5.20;;;4.27;;
920;SDS011;447;51.332;6.778;2023-07-31T00:39:15;6.10;;;4.10;;
920;SDS011;447;51.332;6.778;2023-07-31T00:41:44;10.10;;;4.30;;
920;SDS011;447;51.332;6.778;2023-07-31T00:44:12;8.67;;;4.20;;
920;SDS011;447;51.332;6.778;2023-07-31T00:46:38;4.40;;;3.97;;
920;SDS011;447;51.332;6.778;2023-07-31T00:49:04;6.10;;;4.20;;
920;SDS011;447;51.332;6.778;2023-07-31T00:51:30;5.73;;;3.90;;
920;SDS011;447;51.332;6.778;2023-07-31T00:53:57;6.40;;;4.30;;
920;SDS011;447;51.332;6.778;2023-07-31T00:56:23;5.87;;;4.50;;
920;SDS011;447;51.332;6.778;2023-07-31T00:58:50;4.70;;;4.13;;
920;SDS011;447;51.332;6.778;2023-07-31T01:01:16;5.67;;;4.17;;
920;SDS011;447;51.332;6.778;2023-07-31T01:03:42;6.37;;;4.37;;
920;SDS011;447;51.332;6.778;2023-07-31T01:08:38;5.70;;;4.10;;
920;SDS011;447;51.332;6.778;2023-07-31T01:11:28;5.80;;;4.23;;
920;SDS011;447;51.332;6.778;2023-07-31T01:13:56;5.10;;;3.60;;
920;SDS011;447;51.332;6.778;2023-07-31T01:18:57;5.93;;;3.80;;
920;SDS011;447;51.332;6.778;2023-07-31T01:27:06;5.73;;;3.80;;
920;SDS011;447;51.332;6.778;2023-07-31T01:32:14;7.17;;;4.50;;
920;SDS011;447;51.332;6.778;2023-07-31T01:34:43;6.97;;;4.10;;
920;SDS011;447;51.332;6.778;2023-07-31T01:37:13;6.57;;;4.53;;
920;SDS011;447;51.332;6.778;2023-07-31T01:39:42;5.60;;;4.00;;
920;SDS011;447;51.332;6.778;2023-07-31T01:42:08;4.33;;;3.93;;
920;SDS011;447;51.332;6.778;2023-07-31T01:44:36;5.00;;;3.90;;
920;SDS011;447;51.332;6.778;2023-07-31T01:47:05;6.37;;;4.20;;
920;SDS011;447;51.332;6.778;2023-07-31T01:49:38;6.07;;;3.97;;
920;SDS011;447;51.332;6.778;2023-07-31T01:52:05;7.90;;;4.27;;
920;SDS011;447;51.332;6.778;2023-07-31T01:54:33;5.13;;;4.17;;
920;SDS011;447;51.332;6.778;2023-07-31T01:56:59;8.80;;;4.30;;
920;SDS011;447;51.332;6.778;2023-07-31T01:59:28;5.43;;;4.23;;
920;SDS011;447;51.332;6.778;2023-07-31T02:01:55;8.10;;;3.77;;
920;SDS011;447;51.332;6.778;2023-07-31T02:04:23;7.00;;;4.03;;
920;SDS011;447;51.332;6.778;2023-07-31T02:06:49;8.10;;;4.57;;
920;SDS011;447;51.332;6.778;2023-07-31T02:09:15;5.37;;;4.33;;
920;SDS011;447;51.332;6.778;2023-07-31T02:11:44;7.97;;;3.90;;
920;SDS011;447;51.332;6.778;2023-07-31T02:14:12;8.20;;;4.57;;
920;SDS011;447;51.332;6.778;2023-07-31T02:16:38;8.10;;;4.40;;
920;SDS011;447;51.332;6.778;2023-07-31T02:19:05;6.50;;;4.83;;
920;SDS011;447;51.332;6.778;2023-07-31T02:21:33;4.90;;;4.33;;
920;SDS011;447;51.332;6.778;2023-07-31T02:24:02;7.60;;;4.57;;
920;SDS011;447;51.332;6.778;2023-07-31T02:26:28;6.73;;;5.03;;
920;SDS011;447;51.332;6.778;2023-07-31T02:28:58;5.80;;;4.57;;
920;SDS011;447;51.332;6.778;2023-07-31T02:31:24;8.60;;;4.43;;
920;SDS011;447;51.332;6.778;2023-07-31T02:33:50;4.80;;;4.23;;
920;SDS011;447;51.332;6.778;2023-07-31T02:36:21;5.40;;;4.00;;
920;SDS011;447;51.332;6.778;2023-07-31T02:38:49;7.77;;;5.00;;
920;SDS011;447;51.332;6.778;2023-07-31T02:41:18;8.50;;;4.57;;
920;SDS011;447;51.332;6.778;2023-07-31T02:43:44;6.40;;;5.03;;
920;SDS011;447;51.332;6.778;2023-07-31T02:46:12;5.67;;;4.43;;
920;SDS011;447;51.332;6.778;2023-07-31T02:48:38;6.17;;;4.80;;
920;SDS011;447;51.332;6.778;2023-07-31T02:51:07;7.70;;;4.90;;
920;SDS011;447;51.332;6.778;2023-07-31T02:53:32;7.43;;;5.00;;
920;SDS011;447;51.332;6.778;2023-07-31T02:55:58;7.80;;;4.50;;
920;SDS011;447;51.332;6.778;2023-07-31T02:58:24;6.33;;;4.67;;
920;SDS011;447;51.332;6.778;2023-07-31T03:00:53;6.90;;;4.43;;
920;SDS011;447;51.332;6.778;2023-07-31T03:03:19;6.60;;;4.00;;
920;SDS011;447;51.332;6.778;2023-07-31T03:05:45;7.97;;;4.67;;
920;SDS011;447;51.332;6.778;2023-07-31T03:08:18;8.30;;;4.70;;
920;SDS011;447;51.332;6.778;2023-07-31T03:10:46;6.33;;;4.13;;
920;SDS011;447;51.332;6.778;2023-07-31T03:13:14;5.70;;;4.40;;
920;SDS011;447;51.332;6.778;2023-07-31T03:15:43;6.03;;;4.70;;
920;SDS011;447;51.332;6.778;2023-07-31T03:18:09;7.73;;;4.30;;
920;SDS011;447;51.332;6.778;2023-07-31T03:20:35;6.83;;;5.20;;
920;SDS011;447;51.332;6.778;2023-07-31T03:23:01;6.43;;;4.57;;
920;SDS011;447;51.332;6.778;2023-07-31T03:25:27;8.13;;;4.70;;
920;SDS011;447;51.332;6.778;2023-07-31T03:27:58;7.80;;;4.67;;
920;SDS011;447;51.332;6.778;2023-07-31T03:30:31;5.37;;;4.87;;
920;SDS011;447;51.332;6.778;2023-07-31T03:32:57;7.00;;;5.50;;
920;SDS011;447;51.332;6.778;2023-07-31T03:35:23;5.07;;;4.50;;
920;SDS011;447;51.332;6.778;2023-07-31T03:37:53;5.57;;;4.77;;
920;SDS011;447;51.332;6.778;2023-07-31T03:40:19;8.30;;;5.50;;
920;SDS011;447;51.332;6.778;2023-07-31T03:42:44;7.57;;;5.27;;
920;SDS011;447;51.332;6.778;2023-07-31T03:45:15;7.67;;;5.03;;
920;SDS011;447;51.332;6.778;2023-07-31T03:47:41;6.10;;;5.03;;
920;SDS011;447;51.332;6.778;2023-07-31T03:50:10;7.27;;;5.10;;
920;SDS011;447;51.332;6.778;2023-07-31T03:52:36;8.83;;;4.80;;
920;SDS011;447;51.332;6.778;2023-07-31T03:55:04;7.23;;;4.63;;
920;SDS011;447;51.332;6.778;2023-07-31T03:57:30;6.03;;;5.10;;
920;SDS011;447;51.332;6.778;2023-07-31T03:59:58;6.17;;;5.33;;
920;SDS011;447;51.332;6.778;2023-07-31T04:02:26;5.73;;;4.33;;
920;SDS011;447;51.332;6.778;2023-07-31T04:04:52;7.20;;;4.67;;
920;SDS011;447;51.332;6.778;2023-07-31T04:07:20;6.97;;;4.90;;
920;SDS011;447;51.332;6.778;2023-07-31T04:09:51;4.73;;;4.03;;
920;SDS011;447;51.332;6.778;2023-07-31T04:12:19;5.20;;;4.70;;
920;SDS011;447;51.332;6.778;2023-07-31T04:14:49;7.13;;;5.00;;
920;SDS011;447;51.332;6.778;2023-07-31T04:17:15;6.13;;;5.17;;
920;SDS011;447;51.332;6.778;2023-07-31T04:19:47;7.60;;;4.60;;
920;SDS011;447;51.332;6.778;2023-07-31T04:22:13;6.30;;;5.30;;
920;SDS011;447;51.332;6.778;2023-07-31T04:24:39;4.60;;;4.20;;
920;SDS011;447;51.332;6.778;2023-07-31T04:27:05;6.43;;;4.90;;
920;SDS011;447;51.332;6.778;2023-07-31T04:29:31;5.13;;;4.20;;
920;SDS011;447;51.332;6.778;2023-07-31T04:31:57;5.70;;;4.40;;
920;SDS011;447;51.332;6.778;2023-07-31T04:34:23;5.27;;;4.77;;
920;SDS011;447;51.332;6.778;2023-07-31T04:36:49;6.20;;;4.47;;
920;SDS011;447;51.332;6.778;2023-07-31T04:39:17;6.00;;;4.73;;
920;SDS011;447;51.332;6.778;2023-07-31T04:41:43;6.00;;;4.70;;
920;SDS011;447;51.332;6.778;2023-07-31T04:44:09;4.90;;;3.73;;
920;SDS011;447;51.332;6.778;2023-07-31T04:46:36;6.80;;;4.47;;
920;SDS011;447;51.332;6.778;2023-07-31T04:49:03;7.57;;;4.67;;
920;SDS011;447;51.332;6.778;2023-07-31T04:51:33;5.90;;;4.63;;
920;SDS011;447;51.332;6.778;2023-07-31T04:53:59;6.03;;;5.07;;
920;SDS011;447;51.332;6.778;2023-07-31T04:56:25;5.50;;;4.80;;
920;SDS011;447;51.332;6.778;2023-07-31T04:58:51;6.13;;;5.07;;
920;SDS011;447;51.332;6.778;2023-07-31T05:01:21;4.63;;;4.10;;
920;SDS011;447;51.332;6.778;2023-07-31T05:03:53;6.83;;;4.40;;
920;SDS011;447;51.332;6.778;2023-07-31T05:06:19;5.37;;;4.63;;
920;SDS011;447;51.332;6.778;2023-07-31T05:08:46;5.50;;;4.30;;
920;SDS011;447;51.332;6.778;2023-07-31T05:11:16;5.43;;;4.63;;
920;SDS011;447;51.332;6.778;2023-07-31T05:13:45;8.13;;;5.40;;
920;SDS011;447;51.332;6.778;2023-07-31T05:16:13;10.53;;;5.87;;
920;SDS011;447;51.332;6.778;2023-07-31T05:18:39;7.97;;;5.50;;
920;SDS011;447;51.332;6.778;2023-07-31T05:21:05;4.80;;;4.40;;
920;SDS011;447;51.332;6.778;2023-07-31T05:23:31;6.40;;;5.20;;
920;SDS011;447;51.332;6.778;2023-07-31T05:26:07;6.30;;;4.90;;
920;SDS011;447;51.332;6.778;2023-07-31T05:28:39;7.00;;;4.90;;
920;SDS011;447;51.332;6.778;2023-07-31T05:31:05;5.17;;;4.50;;
920;SDS011;447;51.332;6.778;2023-07-31T05:33:33;6.07;;;5.20;;
920;SDS011;447;51.332;6.778;2023-07-31T05:35:59;5.23;;;4.73;;
920;SDS011;447;51.332;6.778;2023-07-31T05:38:27;9.43;;;5.60;;
920;SDS011;447;51.332;6.778;2023-07-31T05:40:54;6.43;;;5.37;;
920;SDS011;447;51.332;6.778;2023-07-31T05:43:20;5.93;;;4.90;;
920;SDS011;447;51.332;6.778;2023-07-31T05:45:46;6.20;;;5.20;;
920;SDS011;447;51.332;6.778;2023-07-31T05:48:14;5.53;;;4.50;;
920;SDS011;447;51.332;6.778;2023-07-31T05:50:40;6.33;;;4.83;;
920;SDS011;447;51.332;6.778;2023-07-31T05:53:06;6.03;;;5.43;;
920;SDS011;447;51.332;6.778;2023-07-31T05:55:33;5.07;;;4.57;;
920;SDS011;447;51.332;6.778;2023-07-31T05:57:59;6.70;;;5.20;;
920;SDS011;447;51.332;6.778;2023-07-31T06:00:25;7.77;;;5.43;;
920;SDS011;447;51.332;6.778;2023-07-31T06:02:51;5.47;;;5.00;;
920;SDS011;447;51.332;6.778;2023-07-31T06:05:17;6.37;;;5.67;;
920;SDS011;447;51.332;6.778;2023-07-31T06:07:45;5.10;;;4.60;;
920;SDS011;447;51.332;6.778;2023-07-31T06:10:11;5.43;;;4.73;;
920;SDS011;447;51.332;6.778;2023-07-31T06:12:37;6.10;;;4.90;;
920;SDS011;447;51.332;6.778;2023-07-31T06:15:04;4.97;;;4.47;;
920;SDS011;447;51.332;6.778;2023-07-31T06:17:33;6.47;;;5.27;;
920;SDS011;447;51.332;6.778;2023-07-31T06:19:59;6.03;;;4.97;;
920;SDS011;447;51.332;6.778;2023-07-31T06:22:26;6.13;;;5.00;;
920;SDS011;447;51.332;6.778;2023-07-31T06:24:51;6.80;;;6.10;;
920;SDS011;447;51.332;6.778;2023-07-31T06:27:19;5.60;;;5.07;;
920;SDS011;447;51.332;6.778;2023-07-31T06:29:47;7.80;;;5.27;;
920;SDS011;447;51.332;6.778;2023-07-31T06:32:13;7.30;;;4.70;;
920;SDS011;447;51.332;6.778;2023-07-31T06:34:40;5.77;;;4.87;;
920;SDS011;447;51.332;6.778;2023-07-31T06:37:06;4.77;;;4.37;;
920;SDS011;447;51.332;6.778;2023-07-31T06:39:34;5.10;;;4.60;;
920;SDS011;447;51.332;6.778;2023-07-31T06:42:00;5.47;;;4.90;;
920;SDS011;447;51.332;6.778;2023-07-31T06:44:31;5.03;;;4.53;;
920;SDS011;447;51.332;6.778;2023-07-31T06:46:57;6.03;;;5.43;;
920;SDS011;447;51.332;6.778;2023-07-31T06:49:26;5.33;;;4.83;;
920;SDS011;447;51.332;6.778;2023-07-31T06:51:52;5.10;;;4.60;;
920;SDS011;447;51.332;6.778;2023-07-31T06:54:18;7.70;;;4.90;;
920;SDS011;447;51.332;6.778;2023-07-31T06:56:44;4.83;;;4.40;;
920;SDS011;447;51.332;6.778;2023-07-31T06:59:10;5.43;;;4.90;;
920;SDS011;447;51.332;6.778;2023-07-31T07:01:36;6.17;;;5.07;;
920;SDS011;447;51.332;6.778;2023-07-31T07:04:02;5.03;;;4.63;;
920;SDS011;447;51.332;6.778;2023-07-31T07:06:30;5.37;;;4.93;;
920;SDS011;447;51.332;6.778;2023-07-31T07:08:56;7.00;;;4.70;;
920;SDS011;447;51.332;6.778;2023-07-31T07:11:27;5.27;;;4.67;;
920;SDS011;447;51.332;6.778;2023-07-31T07:13:56;4.63;;;4.23;;
920;SDS011;447;51.332;6.778;2023-07-31T07:16:24;6.17;;;5.20;;
920;SDS011;447;51.332;6.778;2023-07-31T07:18:50;5.00;;;4.60;;
920;SDS011;447;51.332;6.778;2023-07-31T07:21:16;5.80;;;4.30;;
920;SDS011;447;51.332;6.778;2023-07-31T07:23:43;5.10;;;4.13;;
920;SDS011;447;51.332;6.778;2023-07-31T07:26:11;6.60;;;4.53;;
920;SDS011;447;51.332;6.778;2023-07-31T07:28:42;4.67;;;4.23;;
920;SDS011;447;51.332;6.778;2023-07-31T07:31:10;6.83;;;4.87;;
920;SDS011;447;51.332;6.778;2023-07-31T07:33:38;5.07;;;4.50;;
920;SDS011;447;51.332;6.778;2023-07-31T07:36:06;5.47;;;4.97;;
920;SDS011;447;51.332;6.778;2023-07-31T07:38:35;5.90;;;4.83;;
920;SDS011;447;51.332;6.778;2023-07-31T07:41:01;6.30;;;4.47;;
920;SDS011;447;51.332;6.778;2023-07-31T07:43:32;5.00;;;4.40;;
920;SDS011;447;51.332;6.778;2023-07-31T07:45:58;6.90;;;4.97;;
920;SDS011;447;51.332;6.778;2023-07-31T07:48:24;4.70;;;4.30;;
920;SDS011;447;51.332;6.778;2023-07-31T07:50:51;4.27;;;3.83;;
920;SDS011;447;51.332;6.778;2023-07-31T07:53:17;5.33;;;4.00;;
920;SDS011;447;51.332;6.778;2023-07-31T07:55:43;4.60;;;4.20;;
920;SDS011;447;51.332;6.778;2023-07-31T07:58:09;4.63;;;4.10;;
920;SDS011;447;51.332;6.778;2023-07-31T08:00:35;5.17;;;4.10;;
920;SDS011;447;51.332;6.778;2023-07-31T08:03:03;4.57;;;4.17;;
920;SDS011;447;51.332;6.778;2023-07-31T08:05:29;5.27;;;4.10;;
920;SDS011;447;51.332;6.778;2023-07-31T08:08:02;5.40;;;4.57;;
920;SDS011;447;51.332;6.778;2023-07-31T08:10:28;6.00;;;4.20;;
920;SDS011;447;51.332;6.778;2023-07-31T08:12:54;4.87;;;4.43;;
920;SDS011;447;51.332;6.778;2023-07-31T08:15:22;5.33;;;3.90;;
920;SDS011;447;51.332;6.778;2023-07-31T08:17:48;5.47;;;4.10;;
920;SDS011;447;51.332;6.778;2023-07-31T08:20:16;5.53;;;4.03;;
920;SDS011;447;51.332;6.778;2023-07-31T08:22:45;4.60;;;4.20;;
920;SDS011;447;51.332;6.778;2023-07-31T08:25:12;4.50;;;4.10;;
920;SDS011;447;51.332;6.778;2023-07-31T08:27:43;5.00;;;4.50;;
920;SDS011;447;51.332;6.778;2023-07-31T08:30:14;4.40;;;4.00;;
920;SDS011;447;51.332;6.778;2023-07-31T08:32:42;4.67;;;4.30;;
920;SDS011;447;51.332;6.778;2023-07-31T08:35:11;5.63;;;4.27;;
920;SDS011;447;51.332;6.778;2023-07-31T08:37:39;5.10;;;4.00;;
920;SDS011;447;51.332;6.778;2023-07-31T08:40:07;4.47;;;4.07;;
920;SDS011;447;51.332;6.778;2023-07-31T08:42:34;4.50;;;3.83;;
920;SDS011;447;51.332;6.778;2023-07-31T08:45:11;7.93;;;4.10;;
920;SDS011;447;51.332;6.778;2023-07-31T08:47:40;4.90;;;4.40;;
920;SDS011;447;51.332;6.778;2023-07-31T08:50:13;6.30;;;3.97;;
920;SDS011;447;51.332;6.778;2023-07-31T08:52:43;4.77;;;4.30;;
920;SDS011;447;51.332;6.778;2023-07-31T08:55:11;4.27;;;3.87;;
920;SDS011;447;51.332;6.778;2023-07-31T08:57:37;4.97;;;4.40;;
920;SDS011;447;51.332;6.778;2023-07-31T09:00:07;4.40;;;4.00;;
920;SDS011;447;51.332;6.778;2023-07-31T09:05:14;4.60;;;4.20;;
920;SDS011;447;51.332;6.778;2023-07-31T09:07:43;5.40;;;4.37;;
920;SDS011;447;51.332;6.778;2023-07-31T09:10:15;5.57;;;3.20;;
920;SDS011;447;51.332;6.778;2023-07-31T09:12:43;3.80;;;3.50;;
920;SDS011;447;51.332;6.778;2023-07-31T09:15:12;4.10;;;3.80;;
920;SDS011;447;51.332;6.778;2023-07-31T09:17:42;5.50;;;4.17;;
920;SDS011;447;51.332;6.778;2023-07-31T09:20:17;4.10;;;3.70;;
920;SDS011;447;51.332;6.778;2023-07-31T09:22:48;3.90;;;3.60;;
920;SDS011;447;51.332;6.778;2023-07-31T09:25:18;4.17;;;3.87;;
920;SDS011;447;51.332;6.778;2023-07-31T09:28:18;4.23;;;3.83;;
920;SDS011;447;51.332;6.778;2023-07-31T09:30:48;4.50;;;3.47;;
920;SDS011;447;51.332;6.778;2023-07-31T09:33:16;4.00;;;3.70;;
920;SDS011;447;51.332;6.778;2023-07-31T09:35:46;4.00;;;3.03;;
920;SDS011;447;51.332;6.778;2023-07-31T09:38:13;4.97;;;4.07;;
920;SDS011;447;51.332;6.778;2023-07-31T09:40:41;3.70;;;3.40;;
920;SDS011;447;51.332;6.778;2023-07-31T09:43:10;4.13;;;3.73;;
920;SDS011;447;51.332;6.778;2023-07-31T09:45:44;3.80;;;3.20;;
920;SDS011;447;51.332;6.778;2023-07-31T09:48:14;4.43;;;3.50;;
920;SDS011;447;51.332;6.778;2023-07-31T09:50:45;4.20;;;3.90;;
920;SDS011;447;51.332;6.778;2023-07-31T09:53:15;4.30;;;3.80;;
920;SDS011;447;51.332;6.778;2023-07-31T09:55:42;4.07;;;3.77;;
920;SDS011;447;51.332;6.778;2023-07-31T09:58:10;4.00;;;3.50;;
920;SDS011;447;51.332;6.778;2023-07-31T10:00:39;7.43;;;3.80;;
920;SDS011;447;51.332;6.778;2023-07-31T10:03:06;3.70;;;3.40;;
920;SDS011;447;51.332;6.778;2023-07-31T10:05:34;3.67;;;3.37;;
920;SDS011;447;51.332;6.778;2023-07-31T10:08:04;3.70;;;3.40;;
920;SDS011;447;51.332;6.778;2023-07-31T10:10:32;6.00;;;3.77;;
920;SDS011;447;51.332;6.778;2023-07-31T10:13:01;4.30;;;3.90;;
920;SDS011;447;51.332;6.778;2023-07-31T10:15:29;4.03;;;3.67;;
920;SDS011;447;51.332;6.778;2023-07-31T10:17:58;4.10;;;3.80;;
920;SDS011;447;51.332;6.778;2023-07-31T10:20:25;4.10;;;3.80;;
920;SDS011;447;51.332;6.778;2023-07-31T10:22:54;5.60;;;3.83;;
920;SDS011;447;51.332;6.778;2023-07-31T10:25:22;4.20;;;3.90;;
920;SDS011;447;51.332;6.778;2023-07-31T10:27:51;4.20;;;3.63;;
920;SDS011;447;51.332;6.778;2023-07-31T10:30:19;4.27;;;3.97;;
920;SDS011;447;51.332;6.778;2023-07-31T10:32:51;3.80;;;3.40;;
920;SDS011;447;51.332;6.778;2023-07-31T10:35:23;4.40;;;4.10;;
920;SDS011;447;51.332;6.778;2023-07-31T10:37:50;4.27;;;3.60;;
920;SDS011;447;51.332;6.778;2023-07-31T10:40:17;4.47;;;4.10;;
920;SDS011;447;51.332;6.778;2023-07-31T10:42:57;4.20;;;3.90;;
920;SDS011;447;51.332;6.778;2023-07-31T10:45:30;3.33;;;3.03;;
920;SDS011;447;51.332;6.778;2023-07-31T10:47:59;4.40;;;4.00;;
920;SDS011;447;51.332;6.778;2023-07-31T10:50:26;4.07;;;3.67;;
920;SDS011;447;51.332;6.778;2023-07-31T10:52:56;4.40;;;4.00;;
920;SDS011;447;51.332;6.778;2023-07-31T10:55:32;3.60;;;3.40;;
920;SDS011;447;51.332;6.778;2023-07-31T10:58:11;4.00;;;3.70;;
920;SDS011;447;51.332;6.778;2023-07-31T11:00:41;4.50;;;3.80;;
920;SDS011;447;51.332;6.778;2023-07-31T11:03:09;3.70;;;3.40;;
920;SDS011;447;51.332;6.778;2023-07-31T11:05:50;3.87;;;3.50;;
920;SDS011;447;51.332;6.778;2023-07-31T11:08:29;3.73;;;3.43;;
920;SDS011;447;51.332;6.778;2023-07-31T11:16:12;4.00;;;3.70;;
920;SDS011;447;51.332;6.778;2023-07-31T11:18:42;3.93;;;3.53;;
920;SDS011;447;51.332;6.778;2023-07-31T11:21:12;5.80;;;3.47;;
920;SDS011;447;51.332;6.778;2023-07-31T11:23:39;4.93;;;4.47;;
920;SDS011;447;51.332;6.778;2023-07-31T11:26:06;4.67;;;4.23;;
920;SDS011;447;51.332;6.778;2023-07-31T11:28:35;4.87;;;3.90;;
920;SDS011;447;51.332;6.778;2023-07-31T11:31:01;4.40;;;4.00;;
920;SDS011;447;51.332;6.778;2023-07-31T11:33:28;3.80;;;3.50;;
920;SDS011;447;51.332;6.778;2023-07-31T11:35:56;4.77;;;3.53;;
920;SDS011;447;51.332;6.778;2023-07-31T11:38:26;3.80;;;3.50;;
920;SDS011;447;51.332;6.778;2023-07-31T11:40:56;4.63;;;4.23;;
920;SDS011;447;51.332;6.778;2023-07-31T11:43:26;4.27;;;3.97;;
920;SDS011;447;51.332;6.778;2023-07-31T11:45:53;4.43;;;3.57;;
920;SDS011;447;51.332;6.778;2023-07-31T11:48:21;3.90;;;3.60;;
920;SDS011;447;51.332;6.778;2023-07-31T11:50:53;4.00;;;3.70;;
920;SDS011;447;51.332;6.778;2023-07-31T11:53:25;3.77;;;3.47;;
920;SDS011;447;51.332;6.778;2023-07-31T11:56:11;3.60;;;3.30;;
920;SDS011;447;51.332;6.778;2023-07-31T11:58:42;3.60;;;3.30;;
920;SDS011;447;51.332;6.778;2023-07-31T12:01:17;4.57;;;3.50;;
920;SDS011;447;51.332;6.778;2023-07-31T12:03:45;3.63;;;3.33;;
920;SDS011;447;51.332;6.778;2023-07-31T12:06:12;3.83;;;3.50;;
920;SDS011;447;51.332;6.778;2023-07-31T12:08:42;3.50;;;3.20;;
920;SDS011;447;51.332;6.778;2023-07-31T12:11:09;3.80;;;3.50;;
920;SDS011;447;51.332;6.778;2023-07-31T12:13:35;3.50;;;3.30;;
920;SDS011;447;51.332;6.778;2023-07-31T12:16:02;3.60;;;3.30;;
920;SDS011;447;51.332;6.778;2023-07-31T12:18:30;3.33;;;3.03;;
920;SDS011;447;51.332;6.778;2023-07-31T12:21:01;3.40;;;3.10;;
920;SDS011;447;51.332;6.778;2023-07-31T12:23:28;3.40;;;3.20;;
920;SDS011;447;51.332;6.778;2023-07-31T12:31:11;3.77;;;3.47;;
920;SDS011;447;51.332;6.778;2023-07-31T12:33:37;3.47;;;3.17;;
920;SDS011;447;51.332;6.778;2023-07-31T12:36:07;3.50;;;3.20;;
920;SDS011;447;51.332;6.778;2023-07-31T12:38:40;3.73;;;3.47;;
920;SDS011;447;51.332;6.778;2023-07-31T12:41:06;4.23;;;3.43;;
920;SDS011;447;51.332;6.778;2023-07-31T12:43:33;3.50;;;3.27;;
920;SDS011;447;51.332;6.778;2023-07-31T12:46:00;4.00;;;3.80;;
920;SDS011;447;51.332;6.778;2023-07-31T12:48:26;2.90;;;2.70;;
920;SDS011;447;51.332;6.778;2023-07-31T12:50:52;4.60;;;3.10;;
920;SDS011;447;51.332;6.778;2023-07-31T12:53:18;3.00;;;2.80;;
920;SDS011;447;51.332;6.778;2023-07-31T12:55:44;3.50;;;3.30;;
920;SDS011;447;51.332;6.778;2023-07-31T12:58:10;4.03;;;3.73;;
920;SDS011;447;51.332;6.778;2023-07-31T13:00:37;3.47;;;3.20;;
920;SDS011;447;51.332;6.778;2023-07-31T13:03:03;4.30;;;3.80;;
920;SDS011;447;51.332;6.778;2023-07-31T13:05:29;3.33;;;3.03;;
920;SDS011;447;51.332;6.778;2023-07-31T13:07:55;3.03;;;2.73;;
920;SDS011;447;51.332;6.778;2023-07-31T13:10:22;3.23;;;3.03;;
920;SDS011;447;51.332;6.778;2023-07-31T13:12:51;3.50;;;3.20;;
920;SDS011;447;51.332;6.778;2023-07-31T13:15:17;3.37;;;3.17;;
920;SDS011;447;51.332;6.778;2023-07-31T13:17:43;3.50;;;3.20;;
920;SDS011;447;51.332;6.778;2023-07-31T13:20:11;3.30;;;3.10;;
920;SDS011;447;51.332;6.778;2023-07-31T13:22:37;3.77;;;3.47;;
920;SDS011;447;51.332;6.778;2023-07-31T13:25:03;3.53;;;3.23;;
920;SDS011;447;51.332;6.778;2023-07-31T13:27:29;3.80;;;3.50;;
920;SDS011;447;51.332;6.778;2023-07-31T13:30:00;3.70;;;3.47;;
920;SDS011;447;51.332;6.778;2023-07-31T13:32:30;3.50;;;3.30;;
920;SDS011;447;51.332;6.778;2023-07-31T13:34:56;3.40;;;3.10;;
920;SDS011;447;51.332;6.778;2023-07-31T13:37:30;4.33;;;4.03;;
920;SDS011;447;51.332;6.778;2023-07-31T13:39:56;3.40;;;3.10;;
920;SDS011;447;51.332;6.778;2023-07-31T13:42:22;3.87;;;3.30;;
920;SDS011;447;51.332;6.778;2023-07-31T13:44:53;4.17;;;3.77;;
920;SDS011;447;51.332;6.778;2023-07-31T13:47:19;4.67;;;4.27;;
920;SDS011;447;51.332;6.778;2023-07-31T13:49:45;3.70;;;3.40;;
920;SDS011;447;51.332;6.778;2023-07-31T13:52:11;4.03;;;3.73;;
920;SDS011;447;51.332;6.778;2023-07-31T13:54:37;4.30;;;3.80;;
920;SDS011;447;51.332;6.778;2023-07-31T13:57:05;3.70;;;3.40;;
920;SDS011;447;51.332;6.778;2023-07-31T13:59:31;4.07;;;3.40;;
920;SDS011;447;51.332;6.778;2023-07-31T14:02:00;4.33;;;3.93;;
920;SDS011;447;51.332;6.778;2023-07-31T14:04:28;4.73;;;4.07;;
920;SDS011;447;51.332;6.778;2023-07-31T14:06:57;4.70;;;4.20;;
920;SDS011;447;51.332;6.778;2023-07-31T14:09:25;4.63;;;4.00;;
920;SDS011;447;51.332;6.778;2023-07-31T14:11:53;4.67;;;4.27;;
920;SDS011;447;51.332;6.778;2023-07-31T14:14:20;4.47;;;4.07;;
920;SDS011;447;51.332;6.778;2023-07-31T14:16:46;4.57;;;4.10;;
920;SDS011;447;51.332;6.778;2023-07-31T14:19:14;4.50;;;4.10;;
920;SDS011;447;51.332;6.778;2023-07-31T14:21:43;4.87;;;4.47;;
920;SDS011;447;51.332;6.778;2023-07-31T14:24:09;5.17;;;4.37;;
920;SDS011;447;51.332;6.778;2023-07-31T14:26:40;4.80;;;4.30;;
920;SDS011;447;51.332;6.778;2023-07-31T14:29:08;5.17;;;4.70;;
920;SDS011;447;51.332;6.778;2023-07-31T14:31:35;4.97;;;4.57;;
920;SDS011;447;51.332;6.778;2023-07-31T14:34:01;5.43;;;4.43;;
920;SDS011;447;51.332;6.778;2023-07-31T14:36:31;4.90;;;4.40;;
920;SDS011;447;51.332;6.778;2023-07-31T14:38:57;4.43;;;4.13;;
920;SDS011;447;51.332;6.778;2023-07-31T14:41:25;4.77;;;4.37;;
920;SDS011;447;51.332;6.778;2023-07-31T14:43:51;4.90;;;4.30;;
920;SDS011;447;51.332;6.778;2023-07-31T14:46:22;4.37;;;3.97;;
920;SDS011;447;51.332;6.778;2023-07-31T14:48:48;4.73;;;4.33;;
920;SDS011;447;51.332;6.778;2023-07-31T14:51:14;5.23;;;4.73;;
920;SDS011;447;51.332;6.778;2023-07-31T14:53:41;5.10;;;4.60;;
920;SDS011;447;51.332;6.778;2023-07-31T14:56:08;5.10;;;4.33;;
920;SDS011;447;51.332;6.778;2023-07-31T14:58:33;4.90;;;4.50;;
920;SDS011;447;51.332;6.778;2023-07-31T15:01:00;4.70;;;4.30;;
920;SDS011;447;51.332;6.778;2023-07-31T15:03:27;5.00;;;4.60;;
920;SDS011;447;51.332;6.778;2023-07-31T15:05:53;5.73;;;5.17;;
920;SDS011;447;51.332;6.778;2023-07-31T15:08:22;6.60;;;4.07;;
920;SDS011;447;51.332;6.778;2023-07-31T15:10:48;4.20;;;3.77;;
920;SDS011;447;51.332;6.778;2023-07-31T15:13:14;4.63;;;4.33;;
920;SDS011;447;51.332;6.778;2023-07-31T15:15:40;6.30;;;4.40;;
920;SDS011;447;51.332;6.778;2023-07-31T15:18:09;6.23;;;4.70;;
920;SDS011;447;51.332;6.778;2023-07-31T15:20:37;5.27;;;4.87;;
920;SDS011;447;51.332;6.778;2023-07-31T15:23:03;4.60;;;4.20;;
920;SDS011;447;51.332;6.778;2023-07-31T15:25:29;5.20;;;4.70;;
920;SDS011;447;51.332;6.778;2023-07-31T15:27:55;5.23;;;4.83;;
920;SDS011;447;51.332;6.778;2023-07-31T15:30:21;4.50;;;4.10;;
920;SDS011;447;51.332;6.778;2023-07-31T15:32:50;8.43;;;4.50;;
920;SDS011;447;51.332;6.778;2023-07-31T15:35:21;5.30;;;4.80;;
920;SDS011;447;51.332;6.778;2023-07-31T15:37:50;5.17;;;4.67;;
920;SDS011;447;51.332;6.778;2023-07-31T15:40:16;5.70;;;5.20;;
920;SDS011;447;51.332;6.778;2023-07-31T15:42:44;5.00;;;4.50;;
920;SDS011;447;51.332;6.778;2023-07-31T15:45:10;5.07;;;4.67;;
920;SDS011;447;51.332;6.778;2023-07-31T15:47:39;5.10;;;4.70;;
920;SDS011;447;51.332;6.778;2023-07-31T15:50:08;6.23;;;4.83;;
920;SDS011;447;51.332;6.778;2023-07-31T15:52:34;5.00;;;4.60;;
920;SDS011;447;51.332;6.778;2023-07-31T15:55:03;6.73;;;5.10;;
920;SDS011;447;51.332;6.778;2023-07-31T15:57:29;5.50;;;5.00;;
920;SDS011;447;51.332;6.778;2023-07-31T16:00:00;5.23;;;4.83;;
920;SDS011;447;51.332;6.778;2023-07-31T16:02:36;5.50;;;4.90;;
920;SDS011;447;51.332;6.778;2023-07-31T16:05:03;5.43;;;4.93;;
920;SDS011;447;51.332;6.778;2023-07-31T16:07:29;7.63;;;4.50;;
920;SDS011;447;51.332;6.778;2023-07-31T16:09:58;5.17;;;4.77;;
920;SDS011;447;51.332;6.778;2023-07-31T16:12:29;5.33;;;4.83;;
920;SDS011;447;51.332;6.778;2023-07-31T16:15:01;5.47;;;4.97;;